sensor_id;sensor_type;location;lat;lon;timestamp;P1;durP1;ratioP1;P2;durP2;ratioP2
5608;SDS011;2826;51.354;9.588;2022-10-31T00:00:31;11.00;;;5.03;;
5608;SDS011;2826;51.354;9.588;2022-10-31T00:02:58;18.80;;;5.50;;
5608;SDS011;2826;51.354;9.588;2022-10-31T00:05:25;10.03;;;4.90;;
5608;SDS011;2826;51.354;9.588;2022-10-31T00:07:52;17.37;;;6.80;;
5608;SDS011;2826;51.354;9.588;2022-10-31T00:10:20;13.07;;;5.30;;
5608;SDS011;2826;51.354;9.588;2022-10-31T00:12:47;11.23;;;4.83;;
5608;SDS011;2826;51.354;9.588;2022-10-31T00:15:14;13.07;;;5.40;;
5608;SDS011;2826;51.354;9.588;2022-10-31T00:17:41;9.57;;;4.90;;
5608;SDS011;2826;51.354;9.588;2022-10-31T00:20:08;9.30;;;4.87;;
5608;SDS011;2826;51.354;9.588;2022-10-31T00:22:35;6.23;;;4.50;;
5608;SDS011;2826;51.354;9.588;2022-10-31T00:25:02;13.63;;;4.30;;
5608;SDS011;2826;51.354;9.588;2022-10-31T00:27:31;11.20;;;5.30;;
5608;SDS011;2826;51.354;9.588;2022-10-31T00:29:58;9.00;;;4.57;;
5608;SDS011;2826;51.354;9.588;2022-10-31T00:32:25;15.20;;;4.80;;
5608;SDS011;2826;51.354;9.588;2022-10-31T00:34:52;13.23;;;4.90;;
5608;SDS011;2826;51.354;9.588;2022-10-31T00:37:19;10.97;;;4.83;;
5608;SDS011;2826;51.354;9.588;2022-10-31T00:39:45;9.57;;;4.80;;
5608;SDS011;2826;51.354;9.588;2022-10-31T00:42:14;15.47;;;4.37;;
5608;SDS011;2826;51.354;9.588;2022-10-31T00:44:44;8.90;;;4.77;;
5608;SDS011;2826;51.354;9.588;2022-10-31T00:47:11;8.07;;;5.10;;
5608;SDS011;2826;51.354;9.588;2022-10-31T00:49:38;14.10;;;5.40;;
5608;SDS011;2826;51.354;9.588;2022-10-31T00:52:05;14.87;;;5.83;;
5608;SDS011;2826;51.354;9.588;2022-10-31T00:54:32;11.93;;;5.30;;
5608;SDS011;2826;51.354;9.588;2022-10-31T00:56:59;10.70;;;6.17;;
5608;SDS011;2826;51.354;9.588;2022-10-31T00:59:26;18.30;;;6.20;;
5608;SDS011;2826;51.354;9.588;2022-10-31T01:01:55;22.63;;;5.97;;
5608;SDS011;2826;51.354;9.588;2022-10-31T01:04:22;12.27;;;5.60;;
5608;SDS011;2826;51.354;9.588;2022-10-31T01:06:49;12.63;;;6.03;;
5608;SDS011;2826;51.354;9.588;2022-10-31T01:09:15;15.90;;;6.40;;
5608;SDS011;2826;51.354;9.588;2022-10-31T01:11:42;15.23;;;5.83;;
5608;SDS011;2826;51.354;9.588;2022-10-31T01:14:09;16.97;;;5.47;;
5608;SDS011;2826;51.354;9.588;2022-10-31T01:16:36;12.47;;;5.83;;
5608;SDS011;2826;51.354;9.588;2022-10-31T01:19:04;14.30;;;5.57;;
5608;SDS011;2826;51.354;9.588;2022-10-31T01:21:31;20.83;;;7.30;;
5608;SDS011;2826;51.354;9.588;2022-10-31T01:23:58;20.77;;;5.80;;
5608;SDS011;2826;51.354;9.588;2022-10-31T01:26:28;18.13;;;6.20;;
5608;SDS011;2826;51.354;9.588;2022-10-31T01:28:56;9.90;;;6.50;;
5608;SDS011;2826;51.354;9.588;2022-10-31T01:31:25;12.43;;;5.80;;
5608;SDS011;2826;51.354;9.588;2022-10-31T01:33:53;12.30;;;5.87;;
5608;SDS011;2826;51.354;9.588;2022-10-31T01:36:23;14.90;;;6.37;;
5608;SDS011;2826;51.354;9.588;2022-10-31T01:38:51;17.50;;;6.33;;
5608;SDS011;2826;51.354;9.588;2022-10-31T01:41:20;11.77;;;6.20;;
5608;SDS011;2826;51.354;9.588;2022-10-31T01:43:50;14.10;;;6.73;;
5608;SDS011;2826;51.354;9.588;2022-10-31T01:46:21;19.60;;;8.20;;
5608;SDS011;2826;51.354;9.588;2022-10-31T01:48:51;12.93;;;6.40;;
5608;SDS011;2826;51.354;9.588;2022-10-31T01:51:21;16.67;;;7.10;;
5608;SDS011;2826;51.354;9.588;2022-10-31T01:53:52;15.07;;;7.60;;
5608;SDS011;2826;51.354;9.588;2022-10-31T01:56:22;22.00;;;6.03;;
5608;SDS011;2826;51.354;9.588;2022-10-31T01:58:50;12.07;;;6.10;;
5608;SDS011;2826;51.354;9.588;2022-10-31T02:01:19;15.40;;;6.10;;
5608;SDS011;2826;51.354;9.588;2022-10-31T02:03:46;15.13;;;5.60;;
5608;SDS011;2826;51.354;9.588;2022-10-31T02:06:18;17.37;;;5.87;;
5608;SDS011;2826;51.354;9.588;2022-10-31T02:08:52;12.90;;;4.93;;
5608;SDS011;2826;51.354;9.588;2022-10-31T02:11:21;7.07;;;4.67;;
5608;SDS011;2826;51.354;9.588;2022-10-31T02:13:49;10.07;;;4.77;;
5608;SDS011;2826;51.354;9.588;2022-10-31T02:16:16;11.80;;;5.40;;
5608;SDS011;2826;51.354;9.588;2022-10-31T02:18:43;17.03;;;5.07;;
5608;SDS011;2826;51.354;9.588;2022-10-31T02:21:11;13.33;;;4.30;;
5608;SDS011;2826;51.354;9.588;2022-10-31T02:24:00;14.00;;;5.03;;
5608;SDS011;2826;51.354;9.588;2022-10-31T02:26:54;11.67;;;5.00;;
5608;SDS011;2826;51.354;9.588;2022-10-31T02:32:46;10.37;;;4.27;;
5608;SDS011;2826;51.354;9.588;2022-10-31T02:35:24;8.90;;;4.43;;
5608;SDS011;2826;51.354;9.588;2022-10-31T02:38:04;8.40;;;4.63;;
5608;SDS011;2826;51.354;9.588;2022-10-31T02:40:39;12.23;;;5.00;;
5608;SDS011;2826;51.354;9.588;2022-10-31T02:43:35;12.60;;;5.10;;
5608;SDS011;2826;51.354;9.588;2022-10-31T02:46:11;8.43;;;5.30;;
5608;SDS011;2826;51.354;9.588;2022-10-31T02:48:44;19.90;;;5.50;;
5608;SDS011;2826;51.354;9.588;2022-10-31T02:51:14;11.17;;;5.03;;
5608;SDS011;2826;51.354;9.588;2022-10-31T02:53:43;9.33;;;4.90;;
5608;SDS011;2826;51.354;9.588;2022-10-31T02:56:11;13.70;;;6.03;;
5608;SDS011;2826;51.354;9.588;2022-10-31T02:58:40;26.27;;;5.37;;
5608;SDS011;2826;51.354;9.588;2022-10-31T03:01:18;11.77;;;5.43;;
5608;SDS011;2826;51.354;9.588;2022-10-31T03:04:06;10.67;;;5.57;;
5608;SDS011;2826;51.354;9.588;2022-10-31T03:06:49;10.07;;;5.20;;
5608;SDS011;2826;51.354;9.588;2022-10-31T03:09:25;18.63;;;5.40;;
5608;SDS011;2826;51.354;9.588;2022-10-31T03:12:02;12.17;;;5.20;;
5608;SDS011;2826;51.354;9.588;2022-10-31T03:14:37;12.80;;;5.33;;
5608;SDS011;2826;51.354;9.588;2022-10-31T03:17:08;8.80;;;6.07;;
5608;SDS011;2826;51.354;9.588;2022-10-31T03:19:42;12.33;;;5.70;;
5608;SDS011;2826;51.354;9.588;2022-10-31T03:22:15;10.00;;;5.43;;
5608;SDS011;2826;51.354;9.588;2022-10-31T03:24:44;10.90;;;5.57;;
5608;SDS011;2826;51.354;9.588;2022-10-31T03:27:14;14.07;;;5.27;;
5608;SDS011;2826;51.354;9.588;2022-10-31T03:29:42;15.40;;;5.57;;
5608;SDS011;2826;51.354;9.588;2022-10-31T03:32:11;14.80;;;5.30;;
5608;SDS011;2826;51.354;9.588;2022-10-31T03:34:44;12.20;;;5.40;;
5608;SDS011;2826;51.354;9.588;2022-10-31T03:37:15;16.97;;;6.20;;
5608;SDS011;2826;51.354;9.588;2022-10-31T03:39:45;10.30;;;4.77;;
5608;SDS011;2826;51.354;9.588;2022-10-31T03:42:15;13.43;;;5.33;;
5608;SDS011;2826;51.354;9.588;2022-10-31T03:44:46;11.77;;;5.83;;
5608;SDS011;2826;51.354;9.588;2022-10-31T03:47:17;17.57;;;5.77;;
5608;SDS011;2826;51.354;9.588;2022-10-31T03:49:48;9.67;;;4.93;;
5608;SDS011;2826;51.354;9.588;2022-10-31T03:52:18;8.00;;;4.63;;
5608;SDS011;2826;51.354;9.588;2022-10-31T03:54:51;20.03;;;5.73;;
5608;SDS011;2826;51.354;9.588;2022-10-31T03:57:22;6.83;;;4.90;;
5608;SDS011;2826;51.354;9.588;2022-10-31T03:59:53;32.40;;;7.20;;
5608;SDS011;2826;51.354;9.588;2022-10-31T04:02:28;8.17;;;4.90;;
5608;SDS011;2826;51.354;9.588;2022-10-31T04:04:59;6.60;;;4.20;;
5608;SDS011;2826;51.354;9.588;2022-10-31T04:07:30;13.90;;;5.57;;
5608;SDS011;2826;51.354;9.588;2022-10-31T04:10:02;6.77;;;5.47;;
5608;SDS011;2826;51.354;9.588;2022-10-31T04:12:33;8.50;;;5.00;;
5608;SDS011;2826;51.354;9.588;2022-10-31T04:15:15;14.27;;;5.57;;
5608;SDS011;2826;51.354;9.588;2022-10-31T04:17:43;11.67;;;5.50;;
5608;SDS011;2826;51.354;9.588;2022-10-31T04:20:17;8.50;;;5.03;;
5608;SDS011;2826;51.354;9.588;2022-10-31T04:22:44;14.20;;;5.60;;
5608;SDS011;2826;51.354;9.588;2022-10-31T04:25:11;14.17;;;5.83;;
5608;SDS011;2826;51.354;9.588;2022-10-31T04:27:38;18.93;;;6.13;;
5608;SDS011;2826;51.354;9.588;2022-10-31T04:30:08;11.83;;;5.47;;
5608;SDS011;2826;51.354;9.588;2022-10-31T04:32:38;10.83;;;5.27;;
5608;SDS011;2826;51.354;9.588;2022-10-31T04:35:06;9.87;;;5.47;;
5608;SDS011;2826;51.354;9.588;2022-10-31T04:37:35;16.47;;;4.93;;
5608;SDS011;2826;51.354;9.588;2022-10-31T04:40:03;6.73;;;4.87;;
5608;SDS011;2826;51.354;9.588;2022-10-31T04:42:51;10.13;;;5.50;;
5608;SDS011;2826;51.354;9.588;2022-10-31T04:45:18;12.10;;;5.13;;
5608;SDS011;2826;51.354;9.588;2022-10-31T04:47:47;12.73;;;5.23;;
5608;SDS011;2826;51.354;9.588;2022-10-31T04:50:14;12.93;;;5.87;;
5608;SDS011;2826;51.354;9.588;2022-10-31T04:52:45;17.33;;;6.27;;
5608;SDS011;2826;51.354;9.588;2022-10-31T04:55:16;17.57;;;5.70;;
5608;SDS011;2826;51.354;9.588;2022-10-31T04:58:01;9.20;;;6.07;;
5608;SDS011;2826;51.354;9.588;2022-10-31T05:00:28;14.47;;;5.57;;
5608;SDS011;2826;51.354;9.588;2022-10-31T05:02:56;11.30;;;5.73;;
5608;SDS011;2826;51.354;9.588;2022-10-31T05:05:27;12.33;;;6.07;;
5608;SDS011;2826;51.354;9.588;2022-10-31T05:07:56;15.00;;;5.57;;
5608;SDS011;2826;51.354;9.588;2022-10-31T05:10:25;9.27;;;5.30;;
5608;SDS011;2826;51.354;9.588;2022-10-31T05:12:57;10.30;;;5.40;;
5608;SDS011;2826;51.354;9.588;2022-10-31T05:15:45;9.37;;;5.33;;
5608;SDS011;2826;51.354;9.588;2022-10-31T05:18:30;14.53;;;6.43;;
5608;SDS011;2826;51.354;9.588;2022-10-31T05:21:00;13.63;;;5.20;;
5608;SDS011;2826;51.354;9.588;2022-10-31T05:23:36;20.00;;;5.30;;
5608;SDS011;2826;51.354;9.588;2022-10-31T05:26:06;14.73;;;5.30;;
5608;SDS011;2826;51.354;9.588;2022-10-31T05:28:33;10.50;;;5.40;;
5608;SDS011;2826;51.354;9.588;2022-10-31T05:31:01;14.13;;;5.87;;
5608;SDS011;2826;51.354;9.588;2022-10-31T05:33:29;13.07;;;6.63;;
5608;SDS011;2826;51.354;9.588;2022-10-31T05:36:15;14.40;;;6.43;;
5608;SDS011;2826;51.354;9.588;2022-10-31T05:38:52;11.50;;;6.23;;
5608;SDS011;2826;51.354;9.588;2022-10-31T05:41:23;23.20;;;6.13;;
5608;SDS011;2826;51.354;9.588;2022-10-31T05:43:54;12.80;;;5.90;;
5608;SDS011;2826;51.354;9.588;2022-10-31T05:46:26;13.20;;;5.57;;
5608;SDS011;2826;51.354;9.588;2022-10-31T05:49:16;16.13;;;6.10;;
5608;SDS011;2826;51.354;9.588;2022-10-31T05:52:03;17.50;;;5.53;;
5608;SDS011;2826;51.354;9.588;2022-10-31T05:54:45;13.60;;;5.63;;
5608;SDS011;2826;51.354;9.588;2022-10-31T05:57:12;11.13;;;6.10;;
5608;SDS011;2826;51.354;9.588;2022-10-31T05:59:39;10.13;;;6.07;;
5608;SDS011;2826;51.354;9.588;2022-10-31T06:02:06;9.40;;;5.43;;
5608;SDS011;2826;51.354;9.588;2022-10-31T06:04:51;16.77;;;7.20;;
5608;SDS011;2826;51.354;9.588;2022-10-31T06:07:18;17.50;;;6.13;;
5608;SDS011;2826;51.354;9.588;2022-10-31T06:09:46;16.50;;;6.30;;
5608;SDS011;2826;51.354;9.588;2022-10-31T06:12:14;12.37;;;5.30;;
5608;SDS011;2826;51.354;9.588;2022-10-31T06:15:07;13.10;;;6.63;;
5608;SDS011;2826;51.354;9.588;2022-10-31T06:17:35;12.87;;;6.20;;
5608;SDS011;2826;51.354;9.588;2022-10-31T06:20:22;17.60;;;6.00;;
5608;SDS011;2826;51.354;9.588;2022-10-31T06:22:56;21.57;;;7.07;;
5608;SDS011;2826;51.354;9.588;2022-10-31T06:25:25;16.33;;;6.50;;
5608;SDS011;2826;51.354;9.588;2022-10-31T06:27:53;15.83;;;6.57;;
5608;SDS011;2826;51.354;9.588;2022-10-31T06:30:24;18.20;;;7.30;;
5608;SDS011;2826;51.354;9.588;2022-10-31T06:32:51;11.50;;;7.17;;
5608;SDS011;2826;51.354;9.588;2022-10-31T06:35:19;15.10;;;7.77;;
5608;SDS011;2826;51.354;9.588;2022-10-31T06:37:53;17.13;;;7.30;;
5608;SDS011;2826;51.354;9.588;2022-10-31T06:40:37;17.23;;;8.33;;
5608;SDS011;2826;51.354;9.588;2022-10-31T06:43:24;16.63;;;7.83;;
5608;SDS011;2826;51.354;9.588;2022-10-31T06:46:10;18.50;;;9.10;;
5608;SDS011;2826;51.354;9.588;2022-10-31T06:48:48;17.50;;;8.07;;
5608;SDS011;2826;51.354;9.588;2022-10-31T06:51:18;21.00;;;9.80;;
5608;SDS011;2826;51.354;9.588;2022-10-31T06:53:48;27.00;;;9.00;;
5608;SDS011;2826;51.354;9.588;2022-10-31T06:56:17;21.23;;;9.40;;
5608;SDS011;2826;51.354;9.588;2022-10-31T06:58:50;23.50;;;10.73;;
5608;SDS011;2826;51.354;9.588;2022-10-31T07:01:29;25.53;;;10.10;;
5608;SDS011;2826;51.354;9.588;2022-10-31T07:03:57;32.23;;;10.97;;
5608;SDS011;2826;51.354;9.588;2022-10-31T07:06:24;23.33;;;10.83;;
5608;SDS011;2826;51.354;9.588;2022-10-31T07:08:51;26.50;;;11.70;;
5608;SDS011;2826;51.354;9.588;2022-10-31T07:11:19;30.23;;;11.77;;
5608;SDS011;2826;51.354;9.588;2022-10-31T07:13:47;36.63;;;13.40;;
5608;SDS011;2826;51.354;9.588;2022-10-31T07:16:14;27.97;;;13.40;;
5608;SDS011;2826;51.354;9.588;2022-10-31T07:18:42;32.63;;;13.67;;
5608;SDS011;2826;51.354;9.588;2022-10-31T07:21:11;37.97;;;14.40;;
5608;SDS011;2826;51.354;9.588;2022-10-31T07:23:38;29.23;;;14.00;;
5608;SDS011;2826;51.354;9.588;2022-10-31T07:26:33;33.93;;;13.73;;
5608;SDS011;2826;51.354;9.588;2022-10-31T07:29:01;31.13;;;13.63;;
5608;SDS011;2826;51.354;9.588;2022-10-31T07:31:28;34.43;;;16.63;;
5608;SDS011;2826;51.354;9.588;2022-10-31T07:34:00;30.53;;;13.27;;
5608;SDS011;2826;51.354;9.588;2022-10-31T07:36:27;29.57;;;14.33;;
5608;SDS011;2826;51.354;9.588;2022-10-31T07:39:02;37.47;;;14.30;;
5608;SDS011;2826;51.354;9.588;2022-10-31T07:41:34;33.33;;;14.30;;
5608;SDS011;2826;51.354;9.588;2022-10-31T07:44:01;29.40;;;13.50;;
5608;SDS011;2826;51.354;9.588;2022-10-31T07:46:28;31.07;;;14.80;;
5608;SDS011;2826;51.354;9.588;2022-10-31T07:49:30;30.00;;;12.13;;
5608;SDS011;2826;51.354;9.588;2022-10-31T07:52:16;34.07;;;12.37;;
5608;SDS011;2826;51.354;9.588;2022-10-31T07:55:09;26.37;;;11.33;;
5608;SDS011;2826;51.354;9.588;2022-10-31T07:57:38;23.73;;;10.40;;
5608;SDS011;2826;51.354;9.588;2022-10-31T08:00:06;30.63;;;10.40;;
5608;SDS011;2826;51.354;9.588;2022-10-31T08:02:40;23.17;;;10.67;;
5608;SDS011;2826;51.354;9.588;2022-10-31T08:05:43;18.43;;;8.80;;
5608;SDS011;2826;51.354;9.588;2022-10-31T08:08:30;23.03;;;9.53;;
5608;SDS011;2826;51.354;9.588;2022-10-31T08:10:57;25.67;;;10.20;;
5608;SDS011;2826;51.354;9.588;2022-10-31T08:13:26;20.20;;;10.90;;
5608;SDS011;2826;51.354;9.588;2022-10-31T08:15:53;17.43;;;10.03;;
5608;SDS011;2826;51.354;9.588;2022-10-31T08:18:24;16.93;;;10.10;;
5608;SDS011;2826;51.354;9.588;2022-10-31T08:20:51;27.90;;;11.00;;
5608;SDS011;2826;51.354;9.588;2022-10-31T08:23:20;28.27;;;11.93;;
5608;SDS011;2826;51.354;9.588;2022-10-31T08:25:47;28.43;;;10.47;;
5608;SDS011;2826;51.354;9.588;2022-10-31T08:28:14;26.20;;;11.03;;
5608;SDS011;2826;51.354;9.588;2022-10-31T08:30:44;21.43;;;10.70;;
5608;SDS011;2826;51.354;9.588;2022-10-31T08:33:31;38.50;;;11.20;;
5608;SDS011;2826;51.354;9.588;2022-10-31T08:36:19;25.90;;;11.00;;
5608;SDS011;2826;51.354;9.588;2022-10-31T08:39:09;27.90;;;11.33;;
5608;SDS011;2826;51.354;9.588;2022-10-31T08:41:37;27.97;;;13.00;;
5608;SDS011;2826;51.354;9.588;2022-10-31T08:44:09;30.20;;;12.67;;
5608;SDS011;2826;51.354;9.588;2022-10-31T08:46:38;30.50;;;12.07;;
5608;SDS011;2826;51.354;9.588;2022-10-31T08:49:05;25.00;;;12.50;;
5608;SDS011;2826;51.354;9.588;2022-10-31T08:51:33;29.00;;;12.33;;
5608;SDS011;2826;51.354;9.588;2022-10-31T08:54:00;19.83;;;10.97;;
5608;SDS011;2826;51.354;9.588;2022-10-31T08:56:53;23.27;;;11.37;;
5608;SDS011;2826;51.354;9.588;2022-10-31T08:59:33;21.60;;;9.67;;
5608;SDS011;2826;51.354;9.588;2022-10-31T09:02:22;18.60;;;10.53;;
5608;SDS011;2826;51.354;9.588;2022-10-31T09:04:52;20.50;;;10.17;;
5608;SDS011;2826;51.354;9.588;2022-10-31T09:07:19;22.93;;;10.63;;
5608;SDS011;2826;51.354;9.588;2022-10-31T09:09:46;22.70;;;10.87;;
5608;SDS011;2826;51.354;9.588;2022-10-31T09:12:13;23.90;;;9.77;;
5608;SDS011;2826;51.354;9.588;2022-10-31T09:14:59;22.23;;;10.30;;
5608;SDS011;2826;51.354;9.588;2022-10-31T09:17:38;22.97;;;10.43;;
5608;SDS011;2826;51.354;9.588;2022-10-31T09:20:28;24.47;;;11.50;;
5608;SDS011;2826;51.354;9.588;2022-10-31T09:22:56;23.93;;;10.00;;
5608;SDS011;2826;51.354;9.588;2022-10-31T09:25:25;22.70;;;10.37;;
5608;SDS011;2826;51.354;9.588;2022-10-31T09:28:14;22.47;;;12.70;;
5608;SDS011;2826;51.354;9.588;2022-10-31T09:30:45;25.93;;;11.33;;
5608;SDS011;2826;51.354;9.588;2022-10-31T09:33:18;18.50;;;9.53;;
5608;SDS011;2826;51.354;9.588;2022-10-31T09:35:59;23.37;;;9.70;;
5608;SDS011;2826;51.354;9.588;2022-10-31T09:38:26;17.80;;;7.97;;
5608;SDS011;2826;51.354;9.588;2022-10-31T09:40:54;16.23;;;8.70;;
5608;SDS011;2826;51.354;9.588;2022-10-31T09:43:29;17.53;;;7.30;;
5608;SDS011;2826;51.354;9.588;2022-10-31T09:46:07;26.23;;;9.10;;
5608;SDS011;2826;51.354;9.588;2022-10-31T09:48:53;20.83;;;9.47;;
5608;SDS011;2826;51.354;9.588;2022-10-31T09:51:48;18.73;;;8.03;;
5608;SDS011;2826;51.354;9.588;2022-10-31T09:54:26;13.97;;;8.90;;
5608;SDS011;2826;51.354;9.588;2022-10-31T09:56:58;16.37;;;8.60;;
5608;SDS011;2826;51.354;9.588;2022-10-31T09:59:27;18.33;;;8.50;;
5608;SDS011;2826;51.354;9.588;2022-10-31T10:01:59;16.73;;;8.77;;
5608;SDS011;2826;51.354;9.588;2022-10-31T10:04:36;18.43;;;9.40;;
5608;SDS011;2826;51.354;9.588;2022-10-31T10:07:16;17.63;;;8.90;;
5608;SDS011;2826;51.354;9.588;2022-10-31T10:10:23;21.33;;;9.90;;
5608;SDS011;2826;51.354;9.588;2022-10-31T10:13:27;52.67;;;10.43;;
5608;SDS011;2826;51.354;9.588;2022-10-31T10:16:08;23.30;;;9.93;;
5608;SDS011;2826;51.354;9.588;2022-10-31T10:18:44;26.57;;;10.07;;
5608;SDS011;2826;51.354;9.588;2022-10-31T10:21:26;20.97;;;11.03;;
5608;SDS011;2826;51.354;9.588;2022-10-31T10:24:08;15.80;;;9.23;;
5608;SDS011;2826;51.354;9.588;2022-10-31T10:26:46;28.70;;;10.10;;
5608;SDS011;2826;51.354;9.588;2022-10-31T10:29:30;19.07;;;9.27;;
5608;SDS011;2826;51.354;9.588;2022-10-31T10:32:01;21.53;;;9.53;;
5608;SDS011;2826;51.354;9.588;2022-10-31T10:34:37;20.50;;;9.83;;
5608;SDS011;2826;51.354;9.588;2022-10-31T10:37:12;20.93;;;10.70;;
5608;SDS011;2826;51.354;9.588;2022-10-31T10:39:48;21.50;;;10.60;;
5608;SDS011;2826;51.354;9.588;2022-10-31T10:42:20;17.73;;;9.23;;
5608;SDS011;2826;51.354;9.588;2022-10-31T10:45:10;20.10;;;8.30;;
5608;SDS011;2826;51.354;9.588;2022-10-31T10:48:02;26.67;;;9.07;;
5608;SDS011;2826;51.354;9.588;2022-10-31T10:50:36;17.77;;;8.30;;
5608;SDS011;2826;51.354;9.588;2022-10-31T10:53:11;15.23;;;8.17;;
5608;SDS011;2826;51.354;9.588;2022-10-31T10:55:59;22.90;;;8.67;;
5608;SDS011;2826;51.354;9.588;2022-10-31T10:58:35;15.97;;;8.57;;
5608;SDS011;2826;51.354;9.588;2022-10-31T11:01:08;22.93;;;8.27;;
5608;SDS011;2826;51.354;9.588;2022-10-31T11:03:37;23.60;;;7.63;;
5608;SDS011;2826;51.354;9.588;2022-10-31T11:06:15;16.57;;;8.43;;
5608;SDS011;2826;51.354;9.588;2022-10-31T11:08:47;16.57;;;7.70;;
5608;SDS011;2826;51.354;9.588;2022-10-31T11:11:19;16.13;;;8.10;;
5608;SDS011;2826;51.354;9.588;2022-10-31T11:13:54;10.87;;;7.50;;
5608;SDS011;2826;51.354;9.588;2022-10-31T11:16:29;25.83;;;8.13;;
5608;SDS011;2826;51.354;9.588;2022-10-31T11:19:06;13.93;;;7.60;;
5608;SDS011;2826;51.354;9.588;2022-10-31T11:21:40;29.33;;;8.53;;
5608;SDS011;2826;51.354;9.588;2022-10-31T11:24:14;19.87;;;7.37;;
5608;SDS011;2826;51.354;9.588;2022-10-31T11:26:44;18.27;;;7.60;;
5608;SDS011;2826;51.354;9.588;2022-10-31T11:29:14;15.43;;;7.30;;
5608;SDS011;2826;51.354;9.588;2022-10-31T11:31:42;16.30;;;7.40;;
5608;SDS011;2826;51.354;9.588;2022-10-31T11:34:18;10.23;;;6.90;;
5608;SDS011;2826;51.354;9.588;2022-10-31T11:36:52;23.93;;;7.40;;
5608;SDS011;2826;51.354;9.588;2022-10-31T11:39:22;17.43;;;6.93;;
5608;SDS011;2826;51.354;9.588;2022-10-31T11:41:51;11.00;;;7.10;;
5608;SDS011;2826;51.354;9.588;2022-10-31T11:44:20;13.33;;;7.00;;
5608;SDS011;2826;51.354;9.588;2022-10-31T11:46:52;12.13;;;5.93;;
5608;SDS011;2826;51.354;9.588;2022-10-31T11:49:24;15.27;;;6.37;;
5608;SDS011;2826;51.354;9.588;2022-10-31T11:51:57;17.10;;;6.33;;
5608;SDS011;2826;51.354;9.588;2022-10-31T11:54:28;16.40;;;6.83;;
5608;SDS011;2826;51.354;9.588;2022-10-31T11:56:59;19.80;;;7.20;;
5608;SDS011;2826;51.354;9.588;2022-10-31T11:59:27;10.03;;;6.60;;
5608;SDS011;2826;51.354;9.588;2022-10-31T12:01:56;12.07;;;6.27;;
5608;SDS011;2826;51.354;9.588;2022-10-31T12:04:27;12.77;;;6.33;;
5608;SDS011;2826;51.354;9.588;2022-10-31T12:07:01;13.30;;;6.10;;
5608;SDS011;2826;51.354;9.588;2022-10-31T12:09:30;14.33;;;6.90;;
5608;SDS011;2826;51.354;9.588;2022-10-31T12:12:21;15.10;;;6.57;;
5608;SDS011;2826;51.354;9.588;2022-10-31T12:15:03;14.30;;;6.50;;
5608;SDS011;2826;51.354;9.588;2022-10-31T12:17:43;13.27;;;6.47;;
5608;SDS011;2826;51.354;9.588;2022-10-31T12:20:18;29.70;;;7.37;;
5608;SDS011;2826;51.354;9.588;2022-10-31T12:22:52;10.07;;;5.73;;
5608;SDS011;2826;51.354;9.588;2022-10-31T12:25:33;14.43;;;6.63;;
5608;SDS011;2826;51.354;9.588;2022-10-31T12:28:25;12.13;;;7.07;;
5608;SDS011;2826;51.354;9.588;2022-10-31T12:31:11;13.33;;;6.97;;
5608;SDS011;2826;51.354;9.588;2022-10-31T12:33:51;13.77;;;6.93;;
5608;SDS011;2826;51.354;9.588;2022-10-31T12:36:28;14.20;;;6.23;;
5608;SDS011;2826;51.354;9.588;2022-10-31T12:39:18;11.70;;;7.37;;
5608;SDS011;2826;51.354;9.588;2022-10-31T12:41:55;15.00;;;6.40;;
5608;SDS011;2826;51.354;9.588;2022-10-31T12:44:37;13.77;;;6.73;;
5608;SDS011;2826;51.354;9.588;2022-10-31T12:47:29;13.10;;;6.80;;
5608;SDS011;2826;51.354;9.588;2022-10-31T12:50:12;15.90;;;7.70;;
5608;SDS011;2826;51.354;9.588;2022-10-31T12:52:51;14.93;;;7.90;;
5608;SDS011;2826;51.354;9.588;2022-10-31T12:55:31;12.07;;;6.93;;
5608;SDS011;2826;51.354;9.588;2022-10-31T12:58:09;14.20;;;6.97;;
5608;SDS011;2826;51.354;9.588;2022-10-31T13:00:41;11.70;;;8.17;;
5608;SDS011;2826;51.354;9.588;2022-10-31T13:03:19;15.30;;;7.90;;
5608;SDS011;2826;51.354;9.588;2022-10-31T13:05:53;16.00;;;8.17;;
5608;SDS011;2826;51.354;9.588;2022-10-31T13:08:26;13.80;;;8.00;;
5608;SDS011;2826;51.354;9.588;2022-10-31T13:10:59;13.77;;;7.47;;
5608;SDS011;2826;51.354;9.588;2022-10-31T13:13:34;25.83;;;8.13;;
5608;SDS011;2826;51.354;9.588;2022-10-31T13:16:07;11.67;;;7.43;;
5608;SDS011;2826;51.354;9.588;2022-10-31T13:18:40;17.97;;;8.80;;
5608;SDS011;2826;51.354;9.588;2022-10-31T13:21:11;11.77;;;7.63;;
5608;SDS011;2826;51.354;9.588;2022-10-31T13:23:43;27.63;;;8.13;;
5608;SDS011;2826;51.354;9.588;2022-10-31T13:26:15;16.50;;;8.00;;
5608;SDS011;2826;51.354;9.588;2022-10-31T13:28:50;13.50;;;7.33;;
5608;SDS011;2826;51.354;9.588;2022-10-31T13:31:22;12.40;;;7.50;;
5608;SDS011;2826;51.354;9.588;2022-10-31T13:33:50;14.63;;;8.13;;
5608;SDS011;2826;51.354;9.588;2022-10-31T13:36:21;19.13;;;8.30;;
5608;SDS011;2826;51.354;9.588;2022-10-31T13:38:59;11.50;;;7.20;;
5608;SDS011;2826;51.354;9.588;2022-10-31T13:41:34;19.23;;;8.50;;
5608;SDS011;2826;51.354;9.588;2022-10-31T13:44:13;11.03;;;7.43;;
5608;SDS011;2826;51.354;9.588;2022-10-31T13:46:42;21.60;;;8.30;;
5608;SDS011;2826;51.354;9.588;2022-10-31T13:49:24;18.13;;;9.80;;
5608;SDS011;2826;51.354;9.588;2022-10-31T13:52:12;17.47;;;9.10;;
5608;SDS011;2826;51.354;9.588;2022-10-31T13:54:41;19.87;;;10.10;;
5608;SDS011;2826;51.354;9.588;2022-10-31T13:57:14;24.27;;;9.07;;
5608;SDS011;2826;51.354;9.588;2022-10-31T13:59:47;23.23;;;11.60;;
5608;SDS011;2826;51.354;9.588;2022-10-31T14:02:24;25.43;;;9.10;;
5608;SDS011;2826;51.354;9.588;2022-10-31T14:04:55;21.80;;;8.70;;
5608;SDS011;2826;51.354;9.588;2022-10-31T14:07:25;18.23;;;8.17;;
5608;SDS011;2826;51.354;9.588;2022-10-31T14:09:54;18.50;;;8.63;;
5608;SDS011;2826;51.354;9.588;2022-10-31T14:12:24;18.63;;;8.97;;
5608;SDS011;2826;51.354;9.588;2022-10-31T14:14:57;17.17;;;8.00;;
5608;SDS011;2826;51.354;9.588;2022-10-31T14:17:31;16.17;;;8.30;;
5608;SDS011;2826;51.354;9.588;2022-10-31T14:22:57;16.60;;;8.63;;
5608;SDS011;2826;51.354;9.588;2022-10-31T14:25:24;15.90;;;8.00;;
5608;SDS011;2826;51.354;9.588;2022-10-31T14:27:56;27.13;;;8.60;;
5608;SDS011;2826;51.354;9.588;2022-10-31T14:30:25;13.13;;;7.90;;
5608;SDS011;2826;51.354;9.588;2022-10-31T14:32:55;14.83;;;7.40;;
5608;SDS011;2826;51.354;9.588;2022-10-31T14:35:27;16.10;;;8.97;;
5608;SDS011;2826;51.354;9.588;2022-10-31T14:38:10;15.67;;;7.63;;
5608;SDS011;2826;51.354;9.588;2022-10-31T14:40:50;18.63;;;7.80;;
5608;SDS011;2826;51.354;9.588;2022-10-31T14:43:31;14.80;;;7.40;;
5608;SDS011;2826;51.354;9.588;2022-10-31T14:46:10;23.77;;;8.00;;
5608;SDS011;2826;51.354;9.588;2022-10-31T14:48:51;18.17;;;7.37;;
5608;SDS011;2826;51.354;9.588;2022-10-31T14:51:30;14.03;;;6.97;;
5608;SDS011;2826;51.354;9.588;2022-10-31T14:54:02;14.57;;;7.00;;
5608;SDS011;2826;51.354;9.588;2022-10-31T14:56:31;23.37;;;8.50;;
5608;SDS011;2826;51.354;9.588;2022-10-31T14:59:02;15.97;;;7.80;;
5608;SDS011;2826;51.354;9.588;2022-10-31T15:01:34;19.23;;;7.87;;
5608;SDS011;2826;51.354;9.588;2022-10-31T15:04:03;16.20;;;8.00;;
5608;SDS011;2826;51.354;9.588;2022-10-31T15:06:37;20.90;;;8.67;;
5608;SDS011;2826;51.354;9.588;2022-10-31T15:09:20;12.90;;;7.67;;
5608;SDS011;2826;51.354;9.588;2022-10-31T15:11:48;20.00;;;8.93;;
5608;SDS011;2826;51.354;9.588;2022-10-31T15:14:23;20.27;;;8.00;;
5608;SDS011;2826;51.354;9.588;2022-10-31T15:16:52;18.43;;;7.43;;
5608;SDS011;2826;51.354;9.588;2022-10-31T15:19:21;11.43;;;7.23;;
5608;SDS011;2826;51.354;9.588;2022-10-31T15:21:50;18.27;;;8.03;;
5608;SDS011;2826;51.354;9.588;2022-10-31T15:24:18;18.53;;;7.80;;
5608;SDS011;2826;51.354;9.588;2022-10-31T15:26:47;22.73;;;8.07;;
5608;SDS011;2826;51.354;9.588;2022-10-31T15:29:16;26.53;;;8.13;;
5608;SDS011;2826;51.354;9.588;2022-10-31T15:31:50;15.90;;;7.70;;
5608;SDS011;2826;51.354;9.588;2022-10-31T15:34:20;18.33;;;7.10;;
5608;SDS011;2826;51.354;9.588;2022-10-31T15:36:53;26.23;;;7.67;;
5608;SDS011;2826;51.354;9.588;2022-10-31T15:39:20;18.13;;;6.50;;
5608;SDS011;2826;51.354;9.588;2022-10-31T15:41:48;15.57;;;6.70;;
5608;SDS011;2826;51.354;9.588;2022-10-31T15:44:17;19.77;;;7.57;;